Terminal Aerodrome Forecast
Issued by NWS Charleston, WV

Current Version | Previous Version | Graphics & Text | Print | Product List | Glossary On
Versions: 1 2 3 4 5 6 7 8 9 10 11 12 13 14 15 16 17 18 19 20 21 22 23 24 25 26
564
FTUS41 KRLX 232320
TAFHTS
TAF
KHTS 232320Z 2400/2424 08008G14KT P6SM OVC080
     FM240200 09008G14KT P6SM OVC045
     FM241200 08006KT P6SM -SHRA OVC050
     FM241600 08005KT P6SM -SHRA OVC030
     FM242300 06004KT P6SM OVC030=

USA.gov is the U.S. government's official web portal to all federal, state and local government web resources and services.